Time;durP1;ratioP1;P1;durP2;ratioP2;P2;SDS_P1;SDS_P2;PMS_P1;PMS_P2;Temp;Humidity;BMP_temperature;BMP_pressure;BME280_temperature;BME280_humidity;BME280_pressure;Samples;Min_cycle;Max_cycle;Signal;HPM_P1;HPM_P2
2023/10/23 00:00:36;;;;;;;4.50;1.83;;;13.80;99.90;;;;;;5086655;28;20462;-81
2023/10/23 00:03:02;;;;;;;1.80;1.30;;;13.70;99.90;;;;;;5086155;28;20459;-82
2023/10/23 00:05:29;;;;;;;3.50;2.00;;;13.70;99.90;;;;;;5087892;28;20462;-81
2023/10/23 00:07:57;;;;;;;3.77;2.03;;;13.70;99.90;;;;;;5090830;28;20775;-81
2023/10/23 00:10:24;;;;;;;5.93;2.00;;;13.60;99.90;;;;;;5086103;28;20459;-79
2023/10/23 00:12:51;;;;;;;2.50;1.80;;;13.60;99.90;;;;;;5091567;28;20483;-81
2023/10/23 00:15:18;;;;;;;4.17;1.90;;;13.50;99.90;;;;;;5090724;28;20454;-81
2023/10/23 00:17:44;;;;;;;3.37;1.73;;;13.50;99.90;;;;;;5089427;28;20471;-81
2023/10/23 00:20:12;;;;;;;4.70;1.73;;;13.40;99.90;;;;;;5082487;28;20453;-83
2023/10/23 00:22:39;;;;;;;4.43;2.00;;;13.40;99.90;;;;;;5089928;28;20997;-82
2023/10/23 00:25:08;;;;;;;5.00;2.27;;;13.30;99.90;;;;;;5086610;28;20473;-81
2023/10/23 00:27:36;;;;;;;3.03;1.90;;;13.30;99.90;;;;;;5087705;28;20476;-80
2023/10/23 00:30:03;;;;;;;3.17;2.00;;;13.30;99.90;;;;;;5084202;28;20446;-81
2023/10/23 00:32:29;;;;;;;4.77;2.37;;;13.30;99.90;;;;;;5087550;28;20582;-81
2023/10/23 00:34:56;;;;;;;4.60;2.23;;;13.30;99.90;;;;;;5085747;28;20537;-81
2023/10/23 00:37:23;;;;;;;3.63;2.30;;;13.40;99.90;;;;;;5089399;28;20446;-80
2023/10/23 00:39:50;;;;;;;3.70;2.27;;;13.40;99.90;;;;;;5087096;28;20468;-82
2023/10/23 00:42:18;;;;;;;3.27;2.57;;;13.40;99.90;;;;;;5086669;28;20852;-81
2023/10/23 00:44:45;;;;;;;3.00;1.90;;;13.50;99.90;;;;;;5083468;28;20451;-82
2023/10/23 00:47:12;;;;;;;2.73;1.70;;;13.40;99.90;;;;;;5085263;28;20443;-79
2023/10/23 00:49:39;;;;;;;6.27;1.97;;;13.50;99.90;;;;;;5084908;28;20463;-81
2023/10/23 00:52:07;;;;;;;2.83;1.90;;;13.50;99.90;;;;;;5083606;28;20545;-82
2023/10/23 00:54:34;;;;;;;2.00;1.53;;;13.50;99.90;;;;;;5087459;28;20487;-81
2023/10/23 00:57:03;;;;;;;7.40;2.53;;;13.50;99.90;;;;;;5090711;28;20460;-82
2023/10/23 00:59:31;;;;;;;3.20;2.23;;;13.50;99.90;;;;;;5082250;28;20497;-81
2023/10/23 01:01:58;;;;;;;2.57;2.03;;;13.40;99.90;;;;;;5083507;28;20449;-82
2023/10/23 01:04:25;;;;;;;4.33;2.10;;;13.50;99.90;;;;;;5087726;28;20522;-81
2023/10/23 01:06:52;;;;;;;4.27;2.33;;;13.40;99.90;;;;;;5080870;28;20957;-81
2023/10/23 01:09:19;;;;;;;3.20;1.77;;;13.40;99.90;;;;;;5082084;28;20453;-82
2023/10/23 01:11:46;;;;;;;3.53;1.90;;;13.40;99.90;;;;;;5085240;28;20459;-82
2023/10/23 01:14:13;;;;;;;4.67;1.73;;;13.30;99.90;;;;;;5080847;28;20567;-80
2023/10/23 01:16:41;;;;;;;3.80;1.73;;;13.30;99.90;;;;;;5076182;28;20451;-80
2023/10/23 01:19:09;;;;;;;4.13;1.80;;;13.20;99.90;;;;;;5080418;28;20458;-81
2023/10/23 01:21:35;;;;;;;5.80;2.20;;;13.20;99.90;;;;;;5091800;28;20491;-81
2023/10/23 01:24:08;;;;;;;2.73;1.70;;;13.20;99.90;;;;;;5090498;28;20469;-82
2023/10/23 01:26:36;;;;;;;3.20;1.87;;;13.10;99.90;;;;;;5092772;28;20440;-81
2023/10/23 01:29:03;;;;;;;3.33;2.00;;;13.10;99.90;;;;;;5090616;28;20450;-81
2023/10/23 01:31:30;;;;;;;3.13;1.90;;;13.10;99.90;;;;;;5088231;28;20961;-80
2023/10/23 01:33:57;;;;;;;2.83;1.80;;;13.00;99.90;;;;;;5095902;28;20498;-80
2023/10/23 01:36:23;;;;;;;3.50;1.87;;;13.00;99.90;;;;;;5095697;28;20461;-81
2023/10/23 01:38:50;;;;;;;3.37;1.73;;;12.90;99.90;;;;;;5090640;28;20968;-81
2023/10/23 01:41:17;;;;;;;2.20;1.60;;;12.90;99.90;;;;;;5091465;28;20973;-81
2023/10/23 01:43:45;;;;;;;4.90;1.90;;;12.90;99.90;;;;;;5086552;28;20817;-81
2023/10/23 01:46:12;;;;;;;5.17;3.07;;;12.80;99.90;;;;;;5091673;28;20461;-81
2023/10/23 01:48:39;;;;;;;4.03;2.17;;;12.80;99.90;;;;;;5084862;28;20460;-80
2023/10/23 01:51:06;;;;;;;3.00;1.60;;;12.80;99.90;;;;;;5080288;28;20532;-81
2023/10/23 01:53:33;;;;;;;2.50;1.93;;;12.70;99.90;;;;;;5094512;28;20492;-82
2023/10/23 01:56:06;;;;;;;3.03;1.90;;;12.70;99.90;;;;;;5095071;28;20974;-81
2023/10/23 01:58:33;;;;;;;2.07;1.50;;;12.70;99.90;;;;;;5086194;28;20456;-81
2023/10/23 02:01:01;;;;;;;3.70;1.80;;;12.60;99.90;;;;;;5081154;28;20461;-81
2023/10/23 02:03:28;;;;;;;3.13;1.50;;;12.60;99.90;;;;;;5088826;28;20482;-81
2023/10/23 02:05:56;;;;;;;3.67;1.80;;;12.50;99.90;;;;;;5096294;28;20443;-82
2023/10/23 02:08:23;;;;;;;5.37;1.60;;;12.50;99.90;;;;;;5095870;28;20462;-82
2023/10/23 02:10:51;;;;;;;2.90;2.00;;;12.40;99.90;;;;;;5089765;28;20461;-82
2023/10/23 02:13:17;;;;;;;4.37;2.10;;;12.30;99.90;;;;;;5089177;28;20495;-81
2023/10/23 02:15:44;;;;;;;6.07;3.17;;;12.30;99.90;;;;;;5087663;28;20459;-82
2023/10/23 02:18:12;;;;;;;3.27;1.57;;;12.30;99.90;;;;;;5096512;28;20453;-81
2023/10/23 02:20:39;;;;;;;3.20;1.83;;;12.20;99.90;;;;;;5082507;28;20455;-82
2023/10/23 02:23:06;;;;;;;2.97;1.63;;;12.20;99.90;;;;;;5095998;28;20481;-82
2023/10/23 02:25:33;;;;;;;2.17;1.77;;;12.20;99.90;;;;;;5095413;28;20452;-83
2023/10/23 02:27:59;;;;;;;3.63;2.07;;;12.10;99.90;;;;;;5095377;28;20490;-82
2023/10/23 02:30:26;;;;;;;3.70;2.03;;;12.10;99.90;;;;;;5083344;28;20461;-82
2023/10/23 02:32:53;;;;;;;7.23;2.00;;;12.10;99.90;;;;;;5094683;28;20509;-81
2023/10/23 02:35:21;;;;;;;3.17;2.13;;;12.10;99.90;;;;;;5090853;28;20611;-82
2023/10/23 02:37:49;;;;;;;2.37;1.73;;;12.00;99.90;;;;;;5094941;28;20449;-81
2023/10/23 02:40:17;;;;;;;3.37;2.00;;;12.00;99.90;;;;;;5084798;28;20974;-81
2023/10/23 02:42:44;;;;;;;4.57;1.80;;;12.00;99.90;;;;;;5093810;28;20476;-81
2023/10/23 02:45:11;;;;;;;3.80;1.90;;;12.00;99.90;;;;;;5087092;28;20444;-82
2023/10/23 02:47:38;;;;;;;2.90;2.07;;;12.00;99.90;;;;;;5095147;28;20570;-81
2023/10/23 02:50:06;;;;;;;6.73;2.00;;;11.90;99.90;;;;;;5086172;28;20447;-83
2023/10/23 02:52:34;;;;;;;2.40;1.73;;;11.90;99.90;;;;;;5092645;28;20827;-81
2023/10/23 02:55:00;;;;;;;3.80;1.80;;;11.90;99.90;;;;;;5099718;28;20505;-81
2023/10/23 02:57:27;;;;;;;6.50;2.17;;;11.80;99.90;;;;;;5090883;28;20454;-82
2023/10/23 02:59:56;;;;;;;4.30;1.80;;;11.80;99.90;;;;;;5083299;28;20466;-83
2023/10/23 03:02:24;;;;;;;2.67;2.20;;;11.80;99.90;;;;;;5094460;28;20470;-81
2023/10/23 03:04:51;;;;;;;3.40;1.80;;;11.70;99.90;;;;;;5098324;28;20447;-82
2023/10/23 03:07:18;;;;;;;5.80;2.13;;;11.70;99.90;;;;;;5096765;28;20472;-79
2023/10/23 03:09:46;;;;;;;3.70;1.90;;;11.60;99.90;;;;;;5089623;28;20458;-82
2023/10/23 03:12:13;;;;;;;2.83;2.00;;;11.60;99.90;;;;;;5092210;28;20474;-82
2023/10/23 03:14:40;;;;;;;4.10;2.47;;;11.60;99.90;;;;;;5097335;28;20496;-82
2023/10/23 03:17:07;;;;;;;3.83;1.93;;;11.60;99.90;;;;;;5098033;28;20456;-82
2023/10/23 03:19:34;;;;;;;2.17;1.73;;;11.60;99.90;;;;;;5091078;28;20467;-81
2023/10/23 03:22:00;;;;;;;7.27;1.87;;;11.60;99.90;;;;;;5098150;28;20832;-80
2023/10/23 03:24:27;;;;;;;3.63;1.60;;;11.50;99.90;;;;;;5090103;28;20459;-82
2023/10/23 03:26:55;;;;;;;2.37;1.37;;;11.50;99.90;;;;;;5094663;28;20452;-82
2023/10/23 03:29:22;;;;;;;2.40;1.60;;;11.50;99.90;;;;;;5076520;28;20813;-80
2023/10/23 03:31:49;;;;;;;2.67;1.87;;;11.50;99.90;;;;;;5096845;28;20457;-80
2023/10/23 03:34:16;;;;;;;7.20;2.03;;;11.50;99.90;;;;;;5090927;28;20496;-82
2023/10/23 03:36:42;;;;;;;4.43;1.97;;;11.40;99.90;;;;;;5088304;28;20449;-82
2023/10/23 03:39:09;;;;;;;3.20;1.87;;;11.40;99.90;;;;;;5086520;28;20543;-82
2023/10/23 03:41:36;;;;;;;2.90;1.70;;;11.40;99.90;;;;;;5084374;28;20448;-82
2023/10/23 03:44:04;;;;;;;4.23;1.57;;;11.30;99.90;;;;;;5087238;28;21001;-81
2023/10/23 03:46:32;;;;;;;2.87;1.83;;;11.30;99.90;;;;;;5076839;28;20985;-81
2023/10/23 03:48:58;;;;;;;6.00;1.77;;;11.30;99.90;;;;;;5081539;28;20451;-82
2023/10/23 03:51:25;;;;;;;3.93;1.80;;;11.30;99.90;;;;;;5079512;28;20550;-81
2023/10/23 03:53:52;;;;;;;4.10;1.70;;;11.30;99.90;;;;;;5076895;28;20497;-81
2023/10/23 03:56:19;;;;;;;2.83;1.50;;;11.20;99.90;;;;;;5077088;28;20446;-82
2023/10/23 03:58:45;;;;;;;3.93;2.70;;;11.20;99.90;;;;;;5079957;28;20460;-81
2023/10/23 04:01:14;;;;;;;3.90;2.27;;;11.20;99.90;;;;;;5085900;28;20460;-81
2023/10/23 04:03:40;;;;;;;3.90;2.20;;;11.20;99.90;;;;;;5096188;28;20473;-83
2023/10/23 04:06:07;;;;;;;2.20;1.80;;;11.10;99.90;;;;;;5082660;28;20460;-82
2023/10/23 04:08:34;;;;;;;5.33;1.90;;;11.10;99.90;;;;;;5087126;28;20459;-82
2023/10/23 04:11:01;;;;;;;4.40;1.87;;;11.10;99.90;;;;;;5081133;28;20985;-81
2023/10/23 04:13:28;;;;;;;4.10;2.23;;;11.10;99.90;;;;;;5089648;28;20495;-81
2023/10/23 04:15:55;;;;;;;2.43;1.53;;;11.10;99.90;;;;;;5096888;28;20493;-80
2023/10/23 04:18:25;;;;;;;4.13;1.80;;;11.10;99.90;;;;;;5089509;28;20456;-80
2023/10/23 04:21:02;;;;;;;2.30;1.83;;;11.10;99.90;;;;;;5081014;28;20454;-80
2023/10/23 04:23:29;;;;;;;6.13;2.20;;;11.10;99.90;;;;;;5090155;28;20921;-80
2023/10/23 04:25:56;;;;;;;4.73;2.23;;;11.00;99.90;;;;;;5069591;28;20442;-81
2023/10/23 04:28:23;;;;;;;4.77;2.50;;;11.00;99.90;;;;;;5091233;28;20443;-81
2023/10/23 04:30:49;;;;;;;4.10;2.53;;;11.00;99.90;;;;;;5079886;28;21861;-81
2023/10/23 04:33:21;;;;;;;3.13;2.33;;;11.00;99.90;;;;;;5082751;28;20468;-81
2023/10/23 04:35:49;;;;;;;5.20;2.20;;;11.00;99.90;;;;;;5078650;28;20565;-80
2023/10/23 04:38:16;;;;;;;3.30;1.90;;;11.00;99.90;;;;;;5094858;28;20461;-80
2023/10/23 04:40:44;;;;;;;3.00;2.30;;;11.00;99.90;;;;;;5079485;28;20461;-80
2023/10/23 04:43:11;;;;;;;2.40;1.90;;;11.00;99.90;;;;;;5088402;28;20483;-80
2023/10/23 04:45:38;;;;;;;3.60;2.13;;;10.90;99.90;;;;;;5097405;28;21037;-79
2023/10/23 04:48:06;;;;;;;4.00;2.37;;;10.90;99.90;;;;;;5090688;28;20461;-83
2023/10/23 04:50:33;;;;;;;3.97;2.20;;;10.90;99.90;;;;;;5086131;28;20465;-79
2023/10/23 04:53:02;;;;;;;2.70;2.17;;;10.90;99.90;;;;;;5097126;28;20537;-80
2023/10/23 04:55:33;;;;;;;4.60;1.90;;;10.90;99.90;;;;;;5100598;28;20836;-80
2023/10/23 04:58:00;;;;;;;2.83;2.07;;;10.80;99.90;;;;;;5086287;28;20924;-81
2023/10/23 05:00:27;;;;;;;4.60;2.07;;;10.80;99.90;;;;;;5086234;28;20528;-80
2023/10/23 05:02:53;;;;;;;3.73;1.80;;;10.80;99.90;;;;;;5079038;28;20472;-81
2023/10/23 05:05:20;;;;;;;2.90;2.03;;;10.80;99.90;;;;;;5093480;28;20942;-82
2023/10/23 05:07:48;;;;;;;3.50;2.10;;;10.80;99.90;;;;;;5081179;28;20549;-80
2023/10/23 05:10:16;;;;;;;8.23;2.73;;;10.80;99.90;;;;;;5088126;28;20481;-81
2023/10/23 05:12:43;;;;;;;6.67;1.97;;;10.80;99.90;;;;;;5086109;28;20553;-80
2023/10/23 05:15:11;;;;;;;3.07;2.33;;;10.80;99.90;;;;;;5083703;28;20486;-80
2023/10/23 05:17:37;;;;;;;3.97;2.30;;;10.90;99.90;;;;;;5089104;28;20454;-78
2023/10/23 05:20:06;;;;;;;3.93;2.67;;;10.90;99.90;;;;;;5079800;28;20458;-81
2023/10/23 05:22:33;;;;;;;2.77;2.13;;;10.90;99.90;;;;;;5086967;28;20474;-80
2023/10/23 05:25:01;;;;;;;7.57;3.07;;;10.90;99.90;;;;;;5091499;28;20454;-80
2023/10/23 05:27:29;;;;;;;3.97;2.40;;;10.90;99.90;;;;;;5093373;28;20529;-81
2023/10/23 05:29:56;;;;;;;6.13;3.20;;;10.90;99.90;;;;;;5073801;28;21032;-80
2023/10/23 05:32:23;;;;;;;5.00;2.50;;;10.90;99.90;;;;;;5089703;28;20529;-81
2023/10/23 05:34:50;;;;;;;4.87;2.97;;;10.90;99.90;;;;;;5077481;28;20504;-80
2023/10/23 05:37:17;;;;;;;4.73;2.73;;;10.90;99.90;;;;;;5082659;28;20507;-79
2023/10/23 05:39:44;;;;;;;5.63;3.50;;;10.90;99.90;;;;;;5077883;28;20547;-81
2023/10/23 05:42:11;;;;;;;3.70;2.73;;;10.90;99.90;;;;;;5077905;28;21326;-80
2023/10/23 05:44:41;;;;;;;3.90;3.07;;;11.00;99.90;;;;;;5078367;28;20824;-81
2023/10/23 05:47:08;;;;;;;5.20;3.20;;;10.90;99.90;;;;;;5077895;28;20443;-81
2023/10/23 05:49:35;;;;;;;5.57;4.10;;;10.90;99.90;;;;;;5094971;28;20457;-81
2023/10/23 05:52:03;;;;;;;5.17;3.97;;;10.90;99.90;;;;;;5091304;28;20459;-81
2023/10/23 05:54:31;;;;;;;5.50;3.80;;;10.90;99.90;;;;;;5081616;28;20990;-80
2023/10/23 05:56:58;;;;;;;7.87;4.10;;;10.90;99.90;;;;;;5078107;28;20830;-81
2023/10/23 05:59:25;;;;;;;5.33;4.70;;;10.90;99.90;;;;;;5093657;28;20465;-81
2023/10/23 06:01:53;;;;;;;5.93;4.20;;;10.90;99.90;;;;;;5093324;28;20972;-81
2023/10/23 06:04:20;;;;;;;6.77;4.77;;;10.90;99.90;;;;;;5099698;28;20448;-82
2023/10/23 06:06:47;;;;;;;6.37;5.70;;;10.90;99.90;;;;;;5095215;28;20514;-80
2023/10/23 06:09:14;;;;;;;6.77;5.33;;;10.90;99.90;;;;;;5079523;28;20461;-81
2023/10/23 06:11:41;;;;;;;7.57;5.77;;;10.90;99.90;;;;;;5087139;28;20951;-81
2023/10/23 06:14:08;;;;;;;7.30;5.90;;;10.90;99.90;;;;;;5085354;28;20478;-81
2023/10/23 06:16:34;;;;;;;5.97;5.17;;;10.90;99.90;;;;;;5086039;28;20454;-82
2023/10/23 06:19:05;;;;;;;11.47;7.10;;;10.90;99.90;;;;;;5074457;28;20468;-80
2023/10/23 06:21:32;;;;;;;9.00;6.53;;;11.00;99.90;;;;;;5074764;28;20529;-81
2023/10/23 06:23:59;;;;;;;7.63;6.00;;;11.00;99.90;;;;;;5078016;28;20474;-83
2023/10/23 06:26:28;;;;;;;9.00;6.60;;;11.00;99.90;;;;;;5094293;28;20455;-80
2023/10/23 06:28:55;;;;;;;9.10;6.53;;;11.00;99.90;;;;;;5093969;28;20945;-82
2023/10/23 06:31:22;;;;;;;7.50;6.50;;;11.00;99.90;;;;;;5078377;28;20523;-79
2023/10/23 06:33:51;;;;;;;11.93;6.37;;;11.00;99.90;;;;;;5080510;28;20488;-82
2023/10/23 06:36:19;;;;;;;6.90;5.90;;;11.00;99.90;;;;;;5073408;28;20544;-82
2023/10/23 06:38:45;;;;;;;7.30;5.10;;;11.00;99.90;;;;;;5078465;28;20460;-82
2023/10/23 06:41:13;;;;;;;11.40;5.70;;;11.00;99.90;;;;;;5084137;28;20500;-81
2023/10/23 06:43:41;;;;;;;8.60;5.80;;;11.00;99.90;;;;;;5080554;28;20864;-81
2023/10/23 06:46:07;;;;;;;6.67;5.60;;;11.00;99.90;;;;;;5085115;28;20454;-83
2023/10/23 06:48:34;;;;;;;7.83;6.13;;;11.00;99.90;;;;;;5075976;28;20474;-82
2023/10/23 06:51:01;;;;;;;7.37;6.13;;;11.00;99.90;;;;;;5074683;28;20532;-83
2023/10/23 06:53:29;;;;;;;7.20;6.00;;;11.00;99.90;;;;;;5077791;28;20964;-82
2023/10/23 06:55:56;;;;;;;8.10;5.93;;;11.00;99.90;;;;;;5072558;28;20562;-81
2023/10/23 06:58:23;;;;;;;7.70;6.40;;;11.10;99.90;;;;;;5079321;28;20457;-81
2023/10/23 07:00:50;;;;;;;6.43;5.73;;;11.10;99.90;;;;;;5078187;28;20447;-82
2023/10/23 07:03:17;;;;;;;6.17;5.53;;;11.10;99.90;;;;;;5080859;28;20472;-82
2023/10/23 07:05:44;;;;;;;7.47;5.47;;;11.10;99.90;;;;;;5074890;28;20452;-81
2023/10/23 07:08:11;;;;;;;7.07;5.90;;;11.10;99.90;;;;;;5069640;28;20470;-80
2023/10/23 07:10:39;;;;;;;11.60;6.37;;;11.20;99.90;;;;;;5072622;28;20463;-82
2023/10/23 07:13:06;;;;;;;8.13;6.30;;;11.20;99.90;;;;;;5073629;28;20477;-82
2023/10/23 07:15:34;;;;;;;7.03;6.20;;;11.20;99.90;;;;;;5073712;28;20868;-81
2023/10/23 07:18:01;;;;;;;8.87;6.20;;;11.30;99.90;;;;;;5071783;28;20531;-82
2023/10/23 07:20:28;;;;;;;9.47;6.80;;;11.30;99.90;;;;;;5078202;28;20466;-83
2023/10/23 07:22:55;;;;;;;6.77;5.40;;;11.30;99.90;;;;;;5076856;28;20482;-80
2023/10/23 07:25:22;;;;;;;6.93;6.10;;;11.40;99.90;;;;;;5076909;28;20462;-80
2023/10/23 07:27:53;;;;;;;11.50;7.17;;;11.40;99.90;;;;;;5072635;28;20476;-83
2023/10/23 07:30:22;;;;;;;10.73;5.70;;;11.40;99.90;;;;;;5074706;28;20451;-81
2023/10/23 07:32:49;;;;;;;8.87;6.40;;;11.50;99.90;;;;;;5080003;28;20472;-81
2023/10/23 07:35:16;;;;;;;8.50;6.10;;;11.50;99.90;;;;;;5080628;28;20482;-83
2023/10/23 07:37:43;;;;;;;8.10;6.40;;;11.60;99.90;;;;;;5094481;28;20521;-83
2023/10/23 07:40:10;;;;;;;10.87;6.60;;;11.60;99.90;;;;;;5093134;28;20817;-82
2023/10/23 07:42:37;;;;;;;8.83;6.40;;;11.60;99.90;;;;;;5086994;28;20551;-81
2023/10/23 07:45:08;;;;;;;6.80;5.67;;;11.70;99.90;;;;;;5088380;28;20443;-82
2023/10/23 07:47:35;;;;;;;7.63;5.83;;;11.70;99.90;;;;;;5087817;28;20537;-82
2023/10/23 07:50:04;;;;;;;9.80;6.07;;;11.80;99.90;;;;;;5084540;28;21090;-82
2023/10/23 07:52:31;;;;;;;6.20;5.07;;;11.90;99.90;;;;;;5077186;28;20534;-80
2023/10/23 07:54:59;;;;;;;8.93;5.70;;;11.90;99.90;;;;;;5092553;28;20526;-82
2023/10/23 07:57:27;;;;;;;6.83;5.37;;;11.90;99.90;;;;;;5098110;28;20527;-82
2023/10/23 07:59:54;;;;;;;9.33;6.03;;;12.00;99.90;;;;;;5090511;28;20492;-82
2023/10/23 08:02:22;;;;;;;9.60;5.93;;;12.00;99.90;;;;;;5091656;28;20483;-81
2023/10/23 08:04:49;;;;;;;7.73;5.60;;;12.10;99.90;;;;;;5098659;28;20836;-82
2023/10/23 08:07:16;;;;;;;7.83;5.70;;;12.10;99.90;;;;;;5089681;28;20462;-81
2023/10/23 08:09:43;;;;;;;7.93;5.53;;;12.20;99.90;;;;;;5091349;28;20456;-82
2023/10/23 08:12:09;;;;;;;7.90;5.20;;;12.20;99.90;;;;;;5083557;28;20471;-83
2023/10/23 08:14:36;;;;;;;9.10;5.93;;;12.30;99.90;;;;;;5087680;28;20459;-82
2023/10/23 08:17:03;;;;;;;9.40;5.13;;;12.20;99.90;;;;;;5079005;28;20488;-81
2023/10/23 08:19:31;;;;;;;6.97;4.63;;;12.30;99.90;;;;;;5076099;28;20474;-81
2023/10/23 08:21:59;;;;;;;6.17;5.03;;;12.40;99.90;;;;;;5085326;28;20943;-80
2023/10/23 08:24:26;;;;;;;7.67;4.93;;;12.50;99.90;;;;;;5098109;28;20458;-82
2023/10/23 08:26:53;;;;;;;6.97;5.07;;;12.60;99.90;;;;;;5089369;28;20475;-82
2023/10/23 08:29:19;;;;;;;10.93;5.30;;;12.60;99.90;;;;;;5081716;28;20454;-82
2023/10/23 08:31:46;;;;;;;7.73;5.37;;;12.70;99.90;;;;;;5086121;28;20552;-81
2023/10/23 08:34:13;;;;;;;7.90;6.00;;;12.70;99.90;;;;;;5097755;28;20482;-82
2023/10/23 08:36:41;;;;;;;6.80;6.10;;;12.70;99.90;;;;;;5094960;28;20495;-81
2023/10/23 08:39:08;;;;;;;5.40;4.77;;;12.80;99.90;;;;;;5095473;28;20457;-80
2023/10/23 08:41:36;;;;;;;7.50;5.10;;;12.90;99.90;;;;;;5089056;28;20458;-80
2023/10/23 08:44:04;;;;;;;8.93;4.80;;;13.00;99.90;;;;;;5083762;28;20467;-82
2023/10/23 08:46:33;;;;;;;7.90;5.37;;;13.00;99.90;;;;;;5077056;28;20829;-82
2023/10/23 08:49:00;;;;;;;6.30;5.70;;;13.10;99.90;;;;;;5075536;28;20542;-81
2023/10/23 08:51:27;;;;;;;8.33;6.00;;;13.20;99.90;;;;;;5075560;28;20539;-82
2023/10/23 08:54:05;;;;;;;6.47;5.23;;;13.30;99.90;;;;;;5084588;28;20510;-81
2023/10/23 08:56:35;;;;;;;7.30;4.97;;;13.40;99.90;;;;;;5086141;28;20484;-80
2023/10/23 08:59:03;;;;;;;11.23;6.00;;;13.40;99.90;;;;;;5087432;28;20454;-82
2023/10/23 09:01:30;;;;;;;8.57;4.90;;;13.50;99.90;;;;;;5084906;28;20536;-80
2023/10/23 09:03:57;;;;;;;9.37;5.50;;;13.50;99.90;;;;;;5093131;28;20561;-86
2023/10/23 09:06:24;;;;;;;8.33;5.27;;;13.60;99.90;;;;;;5089566;28;20464;-83
2023/10/23 09:08:51;;;;;;;8.70;5.43;;;13.70;99.90;;;;;;5080045;28;20478;-81
2023/10/23 09:11:22;;;;;;;8.17;6.00;;;13.60;99.90;;;;;;5075596;28;20458;-80
2023/10/23 09:13:49;;;;;;;7.00;5.07;;;13.70;99.90;;;;;;5084652;28;20510;-81
2023/10/23 09:16:16;;;;;;;9.43;5.10;;;13.70;99.90;;;;;;5083410;28;20581;-82
2023/10/23 09:18:50;;;;;;;5.80;5.07;;;13.70;99.90;;;;;;5076773;28;20490;-82
2023/10/23 09:21:17;;;;;;;7.63;5.53;;;13.70;99.90;;;;;;5075375;28;20463;-82
2023/10/23 09:23:53;;;;;;;9.53;5.20;;;13.80;99.90;;;;;;5094794;28;20488;-82
2023/10/23 09:26:22;;;;;;;6.30;5.10;;;13.90;99.90;;;;;;5088832;28;20461;-83
2023/10/23 09:28:51;;;;;;;8.93;5.53;;;13.90;99.90;;;;;;5085803;28;20553;-82
2023/10/23 09:31:19;;;;;;;6.53;5.20;;;14.00;99.90;;;;;;5080356;28;20855;-83
2023/10/23 09:33:46;;;;;;;8.27;4.80;;;14.10;99.90;;;;;;5088234;28;20491;-81
2023/10/23 09:36:14;;;;;;;5.63;4.30;;;14.20;99.90;;;;;;5091063;28;20490;-81
2023/10/23 09:38:43;;;;;;;4.90;4.00;;;14.30;99.90;;;;;;5084111;28;20458;-81
2023/10/23 09:41:10;;;;;;;9.33;6.70;;;14.40;99.90;;;;;;5095549;28;21027;-84
2023/10/23 09:43:45;;;;;;;7.50;4.50;;;14.40;99.90;;;;;;5096324;28;20480;-81
2023/10/23 09:46:12;;;;;;;5.13;4.43;;;14.40;99.90;;;;;;5097495;28;21152;-82
2023/10/23 09:48:41;;;;;;;5.00;4.00;;;14.40;99.90;;;;;;5091585;28;20899;-82
2023/10/23 09:51:14;;;;;;;6.60;4.17;;;14.50;99.90;;;;;;5080950;28;20485;-83
2023/10/23 09:53:43;;;;;;;6.97;4.20;;;14.50;99.90;;;;;;5089407;28;20598;-83
2023/10/23 09:56:09;;;;;;;6.70;3.50;;;14.60;99.90;;;;;;5093023;28;20560;-82
2023/10/23 09:58:41;;;;;;;6.50;3.43;;;14.70;99.90;;;;;;5085016;28;20550;-83
2023/10/23 10:01:09;;;;;;;7.30;4.20;;;14.80;99.90;;;;;;5096518;28;20965;-83
2023/10/23 10:03:39;;;;;;;5.30;3.73;;;14.90;99.90;;;;;;5087512;28;20476;-83
2023/10/23 10:06:14;;;;;;;6.93;3.33;;;15.00;99.90;;;;;;5095948;28;20452;-83
2023/10/23 10:08:46;;;;;;;8.30;3.67;;;15.10;99.90;;;;;;5084269;28;20463;-82
2023/10/23 10:11:14;;;;;;;4.90;4.00;;;15.10;99.90;;;;;;5089419;28;20462;-79
2023/10/23 10:13:43;;;;;;;7.87;3.63;;;15.20;86.40;;;;;;5094380;28;20477;-83
2023/10/23 10:16:12;;;;;;;9.80;4.03;;;15.30;49.00;;;;;;5096549;28;20573;-83
2023/10/23 10:18:42;;;;;;;5.23;3.30;;;15.40;16.40;;;;;;5083928;28;20845;-83
2023/10/23 10:21:12;;;;;;;9.07;3.40;;;15.40;15.30;;;;;;5082726;28;20460;-81
2023/10/23 10:23:40;;;;;;;8.00;3.37;;;15.50;43.70;;;;;;5093432;28;20562;-82
2023/10/23 10:26:07;;;;;;;4.77;3.53;;;15.70;43.50;;;;;;5096026;28;20527;-82
2023/10/23 10:28:37;;;;;;;5.00;2.80;;;15.80;34.90;;;;;;5091538;28;20547;-83
2023/10/23 10:31:06;;;;;;;5.80;3.90;;;15.90;15.70;;;;;;5087960;28;20453;-82
2023/10/23 10:33:33;;;;;;;3.90;2.93;;;16.00;23.50;;;;;;5072489;28;20823;-82
2023/10/23 10:36:01;;;;;;;5.80;3.43;;;16.10;8.90;;;;;;5077451;28;20862;-82
2023/10/23 10:38:29;;;;;;;5.30;2.80;;;16.30;1.00;;;;;;5074025;28;20483;-81
2023/10/23 10:40:56;;;;;;;4.53;3.43;;;16.40;1.00;;;;;;5073586;28;20458;-82
2023/10/23 10:43:25;;;;;;;3.70;2.60;;;16.50;1.00;;;;;;5073938;28;20467;-81
2023/10/23 10:45:51;;;;;;;3.13;2.83;;;16.60;1.00;;;;;;5077089;28;20502;-82
2023/10/23 10:48:20;;;;;;;5.67;3.83;;;16.70;1.00;;;;;;5082126;28;20816;-80
2023/10/23 10:50:47;;;;;;;5.70;3.20;;;16.70;1.00;;;;;;5083796;28;20447;-80
2023/10/23 10:53:15;;;;;;;5.80;3.83;;;16.80;1.00;;;;;;5087148;28;20481;-80
2023/10/23 10:55:44;;;;;;;4.97;3.30;;;16.90;1.00;;;;;;5095602;28;20535;-81
2023/10/23 10:58:12;;;;;;;4.40;3.03;;;17.00;1.00;;;;;;5077782;28;20468;-80
2023/10/23 11:00:39;;;;;;;6.23;2.93;;;17.00;1.00;;;;;;5088228;28;20449;-81
2023/10/23 11:03:06;;;;;;;4.20;3.10;;;17.10;1.00;;;;;;5085029;28;20545;-81
2023/10/23 11:05:36;;;;;;;6.00;2.90;;;17.10;1.00;;;;;;5087217;28;20968;-81
2023/10/23 11:08:03;;;;;;;4.90;3.20;;;17.10;1.00;;;;;;5085268;28;20468;-81
2023/10/23 11:10:30;;;;;;;5.63;2.80;;;17.10;1.00;;;;;;5076218;28;20554;-82
2023/10/23 11:12:59;;;;;;;6.63;2.73;;;17.10;1.00;;;;;;5078033;28;20900;-83
2023/10/23 11:15:25;;;;;;;3.50;2.60;;;17.10;99.90;;;;;;5082967;28;20527;-80
2023/10/23 11:17:53;;;;;;;5.77;2.80;;;17.20;1.00;;;;;;5070664;28;20493;-82
2023/10/23 11:20:20;;;;;;;4.57;2.40;;;17.20;1.00;;;;;;5076487;28;20544;-83
2023/10/23 11:22:49;;;;;;;6.27;2.57;;;17.40;1.00;;;;;;5071422;28;20513;-80
2023/10/23 11:25:17;;;;;;;3.83;2.40;;;17.60;1.00;;;;;;5079274;28;20450;-82
2023/10/23 11:27:46;;;;;;;3.93;2.13;;;17.70;99.90;;;;;;5088017;28;20452;-82
2023/10/23 11:30:13;;;;;;;4.57;2.73;;;17.90;99.90;;;;;;5083553;28;20473;-82
2023/10/23 11:32:40;;;;;;;3.97;2.40;;;18.00;99.90;;;;;;5084303;28;20561;-82
2023/10/23 11:35:08;;;;;;;5.03;2.27;;;18.10;99.90;;;;;;5071945;28;20855;-83
2023/10/23 11:37:38;;;;;;;5.10;1.63;;;18.10;99.90;;;;;;5065718;28;20566;-79
2023/10/23 11:40:07;;;;;;;6.30;2.57;;;18.10;99.90;;;;;;5071123;28;20452;-81
2023/10/23 11:42:48;;;;;;;3.73;1.83;;;17.90;1.00;;;;;;5071235;28;20479;-80
2023/10/23 11:45:17;;;;;;;8.27;2.40;;;17.70;99.90;;;;;;5072679;28;20460;-81
2023/10/23 11:47:44;;;;;;;9.40;2.40;;;17.80;99.90;;;;;;5082285;28;20435;-82
2023/10/23 11:50:14;;;;;;;2.97;2.10;;;17.70;99.90;;;;;;5081174;28;20931;-77
2023/10/23 11:52:44;;;;;;;6.17;1.93;;;17.50;99.90;;;;;;5068492;28;20474;-80
2023/10/23 11:55:14;;;;;;;3.27;2.97;;;17.50;99.90;;;;;;5081865;28;20450;-81
2023/10/23 11:57:42;;;;;;;4.10;1.67;;;17.50;99.90;;;;;;5090666;28;20576;-81
2023/10/23 12:00:12;;;;;;;1.90;1.40;;;17.50;99.90;;;;;;5085192;28;20435;-81
2023/10/23 12:02:40;;;;;;;3.30;1.87;;;17.50;99.90;;;;;;5081898;28;20475;-81
2023/10/23 12:05:10;;;;;;;3.30;1.87;;;17.50;99.90;;;;;;5084808;28;20534;-82
2023/10/23 12:07:46;;;;;;;1.97;1.40;;;17.50;1.00;;;;;;5082187;28;20459;-80
2023/10/23 12:10:16;;;;;;;4.17;1.63;;;17.40;99.90;;;;;;5086014;28;20974;-82
2023/10/23 12:12:44;;;;;;;6.97;2.93;;;17.30;99.90;;;;;;5081519;28;20505;-80
2023/10/23 12:15:12;;;;;;;3.40;2.00;;;17.20;1.00;;;;;;5083612;28;20481;-80
2023/10/23 12:17:40;;;;;;;3.10;1.77;;;17.00;99.90;;;;;;5093611;28;20497;-81
2023/10/23 12:20:09;;;;;;;2.90;2.10;;;17.00;1.00;;;;;;5086163;28;21011;-81
2023/10/23 12:22:38;;;;;;;5.60;1.87;;;17.00;1.00;;;;;;5084835;28;20550;-82
2023/10/23 12:25:05;;;;;;;3.70;1.70;;;16.90;1.00;;;;;;5091555;28;20468;-81
2023/10/23 12:27:34;;;;;;;4.30;2.20;;;17.00;1.00;;;;;;5092770;28;20457;-82
2023/10/23 12:30:02;;;;;;;2.87;1.80;;;16.80;99.90;;;;;;5087446;28;20443;-81
2023/10/23 12:32:31;;;;;;;3.13;2.10;;;16.70;1.00;;;;;;5090396;28;20472;-81
2023/10/23 12:34:59;;;;;;;3.60;2.47;;;16.80;1.00;;;;;;5082393;28;20453;-81
2023/10/23 12:37:27;;;;;;;5.63;2.13;;;16.80;1.00;;;;;;5079608;28;20920;-81
2023/10/23 12:39:54;;;;;;;2.87;2.20;;;16.80;1.00;;;;;;5085203;28;20508;-82
2023/10/23 12:42:21;;;;;;;4.10;1.77;;;16.70;1.00;;;;;;5081730;28;20579;-82
2023/10/23 12:44:50;;;;;;;3.30;2.10;;;16.60;1.00;;;;;;5079729;28;21025;-80
2023/10/23 12:47:18;;;;;;;5.23;2.63;;;16.60;1.00;;;;;;5081609;28;20573;-81
2023/10/23 12:49:45;;;;;;;6.20;2.40;;;16.60;1.00;;;;;;5077916;28;20451;-82